Oelwein, IA (50662)

06:22 CDT le 28 août 2014 (GMT -0500)
Maplewood Dr | Change Station
CLOSE
Current Station
Stations météorologiques personnelles
Location: Oelwein, IA
Altitude: 1135 ft
Stations météo à proximité

Alt. 1135 ft 42.69 °N, 91.91 °W | Updated 5 seconds ago

Overcast
Couvert
65.5 ° F
Paraît 65.5 ° F
N
3.4
Vent Variable Vent de Est
Gusts 3.4 mph

Aujourd'hui
Haut(e) -- | Bas -- ° F
--% Risque de précip.
Hier
Haut(e) -- | Bas -- ° F
Precip. -- pouce
6:28 AM 7:48 PM
Lune montante, 7% visible
Pression 30.09 pouce
Visibilité 10.0 Miles terrestres
Nuages Nuageux 11000 ft
Nuageux 13000 ft
Couvert 15000 ft
Point de rosée 61 ° F
Humidité 84%
Précipitations 0.00 pouce
Profondeur de la couche neigeuse Non disponible.
UV 0 sur 12
Pollen 1.00 sur 12
Qualité de l'air Non disponible.
Flu Activity Non disponible.
METAR KOLZ 281115Z AUTO 11007KT 10SM BKN110 BKN130 OVC150 18/17 A3009 RMK AO2

More Conditions Fewer Conditions

Pression 30.09 pouce
Visibilité 10.0 Miles terrestres
Nuages Nuageux 11000 ft
Nuageux 13000 ft
Couvert 15000 ft
Point de rosée 61 ° F
Humidité 84%
Précipitations 0.00 pouce
Profondeur de la couche neigeuse Non disponible.
UV 0 sur 12
Pollen 1.00 sur 12
Qualité de l'air Non disponible.
Flu Activity Non disponible.
METAR KOLZ 281115Z AUTO 11007KT 10SM BKN110 BKN130 OVC150 18/17 A3009 RMK AO2

More Conditions Fewer Conditions

10-Day Weather Forecast

Almanac

Astronomie

Aug. 28, 2014 Lever Coucher
Temps réel 06:28 CDT 19:48 CDT
Crépuscule civil 05:58 CDT 20:17 CDT
Crépuscule nautique 05:23 CDT 20:53 CDT
Crépuscule astronomique 04:46 CDT 21:30 CDT
Lune 09:25 CDT 21:07 CDT
Durée de lumière visible 14h 19m
Longueur du jour
13h 20m
Tomorrow will be 2m 45s shorter.
Lune montante, 7% of the Moon is Illuminated
Aujourd'hui
Lune montante
Sep 2
Premier quartier
Sep 8
Pleine lune
Sep 15
Dernier quartier
Sep 24
Nouveau

Extrêmes aujourd'hui

State Highs State Lows

Community

WunderPhotos

Upload Photos

1,747,923 Photos téléchargées !

Nearby

Épaisseur de neige

Station Depth Altitude
Pas de nouvelles chutes de neige

Activité sismique

Ville Distance Mag. Time & Date
No recent earthquake activity has been reported nearby.
Minimum magnitude displayed is 2.5.

Températures des eaux côtières

Lieu Température
Aucun rapport de station

Stations météo à proximité